Time;durP1;ratioP1;P1;durP2;ratioP2;P2;SDS_P1;SDS_P2;PMS_P1;PMS_P2;Temp;Humidity;BMP_temperature;BMP_pressure;BME280_temperature;BME280_humidity;BME280_pressure;Samples;Min_cycle;Max_cycle;Signal;HPM_P1;HPM_P2
2022/04/07 00:00:03;;;;;;;5.63;4.50;;;;;;;15.53;40.75;93668.88;5054930;28;20417;-74
2022/04/07 00:02:29;;;;;;;5.27;4.57;;;;;;;15.33;41.12;93666.84;5052381;28;20179;-74
2022/04/07 00:04:55;;;;;;;4.90;4.13;;;;;;;15.58;40.82;93657.59;5046365;28;20437;-74
2022/04/07 00:07:20;;;;;;;5.13;4.60;;;;;;;15.08;41.84;93654.19;5046495;28;20170;-74
2022/04/07 00:09:45;;;;;;;4.30;3.90;;;;;;;15.19;40.83;93647.19;5045000;28;20219;-74
2022/04/07 00:12:11;;;;;;;4.53;4.13;;;;;;;14.96;42.17;93648.25;5055164;28;20269;-74
2022/04/07 00:14:36;;;;;;;4.87;4.47;;;;;;;15.02;41.25;93637.53;5066571;28;20234;-74
2022/04/07 00:17:02;;;;;;;4.57;4.13;;;;;;;15.02;42.38;93632.25;5066111;28;20529;-74
2022/04/07 00:19:28;;;;;;;5.87;4.60;;;;;;;15.04;41.60;93634.63;5065084;28;20186;-74
2022/04/07 00:21:57;;;;;;;7.30;5.20;;;;;;;15.01;41.78;93645.69;5057844;28;20246;-74
2022/04/07 00:24:23;;;;;;;5.20;4.70;;;;;;;15.02;41.76;93627.00;5044582;28;20221;-75
2022/04/07 00:26:49;;;;;;;5.00;4.53;;;;;;;15.23;41.38;93616.63;5052008;28;20481;-74
2022/04/07 00:29:14;;;;;;;6.93;5.00;;;;;;;15.05;42.27;93612.50;5065953;28;20421;-74
2022/04/07 00:31:40;;;;;;;6.23;4.57;;;;;;;15.10;42.35;93612.59;5062565;28;20171;-74
2022/04/07 00:34:06;;;;;;;6.90;4.70;;;;;;;15.54;41.20;93603.78;5046072;28;20183;-74
2022/04/07 00:36:32;;;;;;;10.10;5.17;;;;;;;15.34;41.51;93605.16;5044437;28;20178;-74
2022/04/07 00:38:58;;;;;;;4.70;4.30;;;;;;;15.11;42.67;93610.72;5045950;28;20792;-74
2022/04/07 00:41:23;;;;;;;5.53;4.73;;;;;;;15.08;42.72;93613.84;5045999;28;20669;-74
2022/04/07 00:43:51;;;;;;;6.80;4.77;;;;;;;15.25;41.75;93614.56;5044374;28;20185;-74
2022/04/07 00:46:17;;;;;;;3.90;3.60;;;;;;;14.64;42.58;93610.22;5045778;28;20239;-73
2022/04/07 00:48:42;;;;;;;6.00;4.57;;;;;;;15.08;41.89;93608.59;5051716;28;20486;-75
2022/04/07 00:51:08;;;;;;;5.23;4.40;;;;;;;14.92;42.23;93607.63;5065481;28;20440;-74
2022/04/07 00:53:34;;;;;;;4.97;4.23;;;;;;;15.00;42.31;93609.81;5060954;28;20186;-74
2022/04/07 00:56:01;;;;;;;5.13;4.63;;;;;;;14.40;43.25;93593.84;5065640;28;20234;-74
2022/04/07 00:58:31;;;;;;;5.80;5.03;;;;;;;14.32;44.15;93596.06;5065763;28;20492;-74
2022/04/07 01:00:57;;;;;;;5.10;4.40;;;;;;;14.20;44.25;93590.94;5066419;28;20448;-74
2022/04/07 01:03:23;;;;;;;8.23;4.23;;;;;;;14.30;44.33;93592.91;5048113;28;20434;-75
2022/04/07 01:05:50;;;;;;;16.90;6.40;;;;;;;14.16;43.46;93597.72;5045460;28;20206;-74
2022/04/07 01:08:15;;;;;;;6.87;3.93;;;;;;;14.14;44.02;93578.75;5045622;28;20168;-74
2022/04/07 01:10:42;;;;;;;4.93;4.43;;;;;;;14.09;43.50;93576.03;5047819;28;20457;-74
2022/04/07 01:13:08;;;;;;;6.00;4.40;;;;;;;14.10;44.23;93567.13;5049743;28;20164;-74
2022/04/07 01:15:33;;;;;;;4.10;3.80;;;;;;;13.96;43.99;93561.38;5049675;28;20425;-74
2022/04/07 01:18:02;;;;;;;6.37;4.67;;;;;;;14.06;44.34;93551.81;5049344;28;20410;-74
2022/04/07 01:20:28;;;;;;;4.40;4.00;;;;;;;14.10;43.93;93556.59;5050678;28;20289;-74
2022/04/07 01:22:55;;;;;;;8.03;4.60;;;;;;;14.34;44.12;93554.53;5068451;28;20413;-74
2022/04/07 01:25:21;;;;;;;4.43;4.03;;;;;;;14.44;43.33;93554.66;5069662;28;20417;-74
2022/04/07 01:27:49;;;;;;;4.33;4.00;;;;;;;14.31;43.34;93547.91;5068898;28;20460;-74
2022/04/07 01:30:15;;;;;;;6.80;5.23;;;;;;;14.52;43.25;93538.44;5069368;28;20194;-74
2022/04/07 01:32:44;;;;;;;4.70;4.23;;;;;;;14.51;42.38;93531.56;5064644;28;20426;-74
2022/04/07 01:35:10;;;;;;;5.67;4.07;;;;;;;14.21;43.28;93524.13;5049452;28;20497;-74
2022/04/07 01:37:37;;;;;;;5.37;4.20;;;;;;;14.29;43.88;93517.63;5064707;28;20418;-74
2022/04/07 01:40:03;;;;;;;4.70;4.30;;;;;;;14.43;43.66;93497.78;5049339;28;20417;-74
2022/04/07 01:42:30;;;;;;;5.50;4.30;;;;;;;14.77;42.64;93501.06;5068267;28;20440;-74
2022/04/07 01:45:00;;;;;;;5.80;4.40;;;;;;;14.37;42.81;93496.16;5069080;28;20425;-74
2022/04/07 01:47:26;;;;;;;7.93;4.70;;;;;;;14.64;42.76;93478.56;5069076;28;20417;-74
2022/04/07 01:50:07;;;;;;;6.07;4.57;;;;;;;14.24;43.88;93490.19;5068909;28;20563;-74
2022/04/07 01:52:35;;;;;;;6.90;4.47;;;;;;;14.34;43.19;93489.53;5067111;28;20429;-74
2022/04/07 01:55:01;;;;;;;5.07;4.60;;;;;;;14.52;43.15;93490.25;5068644;28;20428;-73
2022/04/07 01:57:27;;;;;;;4.43;4.03;;;;;;;14.30;43.79;93485.00;5068458;28;20431;-73
2022/04/07 01:59:53;;;;;;;4.13;3.50;;;;;;;14.45;43.95;93474.63;5068555;28;20863;-74
2022/04/07 02:02:21;;;;;;;4.50;4.10;;;;;;;15.00;42.45;93476.25;5084829;28;20416;-74
2022/04/07 02:05:09;;;;;;;5.20;4.60;;;;;;;14.97;42.00;93474.13;5081947;28;20964;-74
2022/04/07 02:07:36;;;;;;;4.77;4.37;;;;;;;14.64;43.07;93457.50;5068989;28;20396;-75
2022/04/07 02:10:03;;;;;;;5.03;4.70;;;;;;;14.58;43.11;93458.47;5062415;28;20516;-74
2022/04/07 02:12:29;;;;;;;6.30;4.27;;;;;;;14.60;43.48;93456.41;5047696;28;20456;-74
2022/04/07 02:14:56;;;;;;;3.93;3.63;;;;;;;14.34;43.49;93451.88;5048923;28;20856;-74
2022/04/07 02:17:22;;;;;;;5.30;4.80;;;;;;;14.37;43.49;93456.66;5048742;28;20406;-74
2022/04/07 02:19:53;;;;;;;5.43;4.83;;;;;;;13.93;45.18;93443.53;5050944;28;20422;-74
2022/04/07 02:22:19;;;;;;;5.43;5.00;;;;;;;14.10;44.58;93433.75;5068794;28;20741;-74
2022/04/07 02:24:45;;;;;;;6.53;6.00;;;;;;;14.04;45.02;93447.88;5067425;28;20471;-75
2022/04/07 02:27:11;;;;;;;4.40;4.10;;;;;;;14.07;45.27;93434.22;5068186;28;20210;-74
2022/04/07 02:29:37;;;;;;;6.07;5.57;;;;;;;14.01;44.94;93427.31;5066787;28;20484;-74
2022/04/07 02:32:04;;;;;;;7.20;4.80;;;;;;;13.87;44.70;93424.28;5049680;28;20189;-74
2022/04/07 02:34:29;;;;;;;5.30;4.80;;;;;;;13.89;44.92;93431.91;5048459;28;20191;-75
2022/04/07 02:36:54;;;;;;;5.20;3.97;;;;;;;13.99;44.96;93438.09;5048425;28;20409;-74
2022/04/07 02:39:20;;;;;;;10.10;4.43;;;;;;;14.37;43.38;93411.94;5048207;28;20724;-74
2022/04/07 02:41:45;;;;;;;10.23;3.60;;;;;;;14.08;44.02;93412.16;5048198;28;20172;-74
2022/04/07 02:44:11;;;;;;;7.93;3.77;;;;;;;14.11;43.58;93395.88;5048052;28;20187;-74
2022/04/07 02:46:37;;;;;;;4.47;3.43;;;;;;;14.55;42.02;93416.03;5047680;28;20200;-74
2022/04/07 02:49:04;;;;;;;5.90;4.03;;;;;;;14.72;42.61;93403.59;5052086;28;20257;-74
2022/04/07 02:51:31;;;;;;;3.97;3.67;;;;;;;14.84;41.78;93392.91;5047430;28;20523;-74
2022/04/07 02:53:58;;;;;;;3.10;2.90;;;;;;;15.00;41.64;93391.16;5050440;28;20513;-74
2022/04/07 02:56:24;;;;;;;6.40;4.00;;;;;;;15.06;41.81;93378.81;5067723;28;20408;-74
2022/04/07 02:58:50;;;;;;;3.67;3.00;;;;;;;14.66;41.96;93370.34;5052893;28;20453;-74
2022/04/07 03:01:16;;;;;;;5.87;4.00;;;;;;;14.97;40.95;93360.84;5047720;28;20485;-74
2022/04/07 03:03:41;;;;;;;3.63;3.33;;;;;;;15.13;41.36;93353.03;5056334;28;20182;-74
2022/04/07 03:06:07;;;;;;;7.07;5.10;;;;;;;14.97;42.07;93358.22;5087660;28;20218;-74
2022/04/07 03:08:35;;;;;;;6.00;4.27;;;;;;;14.83;42.38;93376.31;5066643;28;20195;-74
2022/04/07 03:11:01;;;;;;;5.73;4.43;;;;;;;14.74;43.02;93351.47;5079367;28;20199;-74
2022/04/07 03:13:27;;;;;;;6.87;4.60;;;;;;;14.69;42.95;93345.38;5047523;28;20410;-74
2022/04/07 03:15:53;;;;;;;3.97;3.67;;;;;;;14.77;42.16;93337.00;5047336;28;20449;-74
2022/04/07 03:18:19;;;;;;;8.20;4.03;;;;;;;14.84;42.47;93340.22;5047010;28;20645;-74
2022/04/07 03:20:45;;;;;;;5.67;4.83;;;;;;;14.87;43.07;93336.28;5047621;28;20789;-74
2022/04/07 03:23:11;;;;;;;5.63;4.77;;;;;;;14.31;44.17;93349.78;5047963;28;20407;-74
2022/04/07 03:25:36;;;;;;;6.07;5.07;;;;;;;14.28;45.37;93348.41;5047395;28;20247;-74
2022/04/07 03:28:03;;;;;;;6.00;4.60;;;;;;;14.42;44.14;93340.91;5095461;28;20242;-74
2022/04/07 03:30:29;;;;;;;7.10;5.70;;;;;;;14.80;43.86;93342.56;5067087;28;20296;-74
2022/04/07 03:32:54;;;;;;;5.10;4.60;;;;;;;14.63;43.45;93341.91;5053047;28;20489;-74
2022/04/07 03:35:20;;;;;;;5.50;5.00;;;;;;;14.90;43.06;93333.94;5046869;28;20245;-74
2022/04/07 03:37:45;;;;;;;5.00;4.50;;;;;;;14.80;43.77;93318.06;5045530;28;20542;-74
2022/04/07 03:40:11;;;;;;;4.90;4.40;;;;;;;14.70;44.53;93312.72;5046985;28;20171;-75
2022/04/07 03:42:37;;;;;;;5.40;4.90;;;;;;;14.81;43.22;93304.63;5046805;28;20234;-74
2022/04/07 03:45:03;;;;;;;5.60;4.60;;;;;;;14.64;44.07;93286.38;5046874;28;20421;-74
2022/04/07 03:47:30;;;;;;;7.63;4.03;;;;;;;14.14;44.65;93273.56;5046569;28;20177;-74
2022/04/07 03:49:55;;;;;;;5.40;5.00;;;;;;;14.50;43.84;93272.00;5046696;28;20195;-74
2022/04/07 03:52:21;;;;;;;6.30;4.60;;;;;;;14.50;44.17;93281.75;5046517;28;20417;-74
2022/04/07 03:54:46;;;;;;;7.20;4.57;;;;;;;14.60;43.30;93258.94;5056487;28;20179;-74
2022/04/07 03:57:11;;;;;;;7.30;4.40;;;;;;;14.71;43.13;93272.19;5065209;28;20285;-76
2022/04/07 03:59:39;;;;;;;5.70;5.20;;;;;;;14.75;43.54;93262.72;5066501;28;20173;-74
2022/04/07 04:02:06;;;;;;;5.50;4.60;;;;;;;14.64;44.48;93267.94;5066390;28;20180;-74
2022/04/07 04:04:32;;;;;;;6.10;5.53;;;;;;;14.63;44.36;93262.94;5077022;28;20449;-74
2022/04/07 04:06:57;;;;;;;5.20;4.80;;;;;;;14.60;44.34;93276.59;5086369;28;20925;-74
2022/04/07 04:09:23;;;;;;;5.57;5.00;;;;;;;14.30;45.18;93282.38;5086018;28;20177;-74
2022/04/07 04:11:48;;;;;;;8.30;4.90;;;;;;;13.82;47.61;93288.25;5086114;28;20166;-75
2022/04/07 04:14:13;;;;;;;5.70;5.20;;;;;;;14.00;46.37;93302.91;5059895;28;20183;-74
2022/04/07 04:16:39;;;;;;;13.30;5.30;;;;;;;13.99;46.44;93311.84;5044881;28;20243;-74
2022/04/07 04:19:04;;;;;;;5.33;4.50;;;;;;;14.54;45.49;93314.44;5046061;28;20179;-74
2022/04/07 04:21:30;;;;;;;5.50;4.70;;;;;;;14.54;44.44;93314.44;5046292;28;20279;-74
2022/04/07 04:23:56;;;;;;;5.67;4.90;;;;;;;14.69;43.63;93311.16;5045651;28;20175;-74
2022/04/07 04:26:21;;;;;;;6.70;4.73;;;;;;;15.08;42.99;93302.94;5044778;28;20497;-74
2022/04/07 04:28:47;;;;;;;4.93;3.87;;;;;;;14.99;42.63;93311.34;5044386;28;20289;-74
2022/04/07 04:31:12;;;;;;;10.50;4.87;;;;;;;14.90;43.10;93302.31;5045471;28;20260;-74
2022/04/07 04:33:37;;;;;;;9.73;4.20;;;;;;;14.74;43.32;93314.63;5047516;28;20187;-74
2022/04/07 04:36:03;;;;;;;10.83;4.90;;;;;;;14.60;43.94;93300.28;5065909;28;20603;-74
2022/04/07 04:38:29;;;;;;;5.87;4.93;;;;;;;14.38;44.81;93300.34;5066157;28;20193;-74
2022/04/07 04:40:54;;;;;;;6.67;6.07;;;;;;;14.64;44.49;93291.63;5065546;28;20435;-75
2022/04/07 04:43:20;;;;;;;5.60;5.10;;;;;;;14.75;44.13;93294.34;5065654;28;20162;-74
2022/04/07 04:45:45;;;;;;;6.50;5.27;;;;;;;14.35;44.98;93290.31;5065718;28;20170;-74
2022/04/07 04:48:11;;;;;;;6.50;5.67;;;;;;;14.57;45.36;93285.78;5063580;28;20194;-75
2022/04/07 04:50:36;;;;;;;9.93;6.83;;;;;;;14.30;47.22;93295.53;5045693;28;20234;-74
2022/04/07 04:53:02;;;;;;;8.43;7.60;;;;;;;14.42;47.19;93290.91;5045519;28;20284;-75
2022/04/07 04:55:27;;;;;;;9.47;7.00;;;;;;;14.21;48.58;93300.47;5060754;28;20178;-75
2022/04/07 04:57:52;;;;;;;9.73;6.90;;;;;;;14.27;48.21;93298.69;5065373;28;20175;-74
2022/04/07 05:00:18;;;;;;;12.83;7.60;;;;;;;14.33;48.57;93297.69;5065484;28;20364;-74
2022/04/07 05:02:44;;;;;;;8.77;7.87;;;;;;;14.46;48.15;93294.63;5065451;28;20174;-74
2022/04/07 05:05:09;;;;;;;9.03;8.00;;;;;;;14.29;48.25;93292.13;5047671;28;20290;-74
2022/04/07 05:07:35;;;;;;;6.63;5.87;;;;;;;14.46;47.91;93292.00;5045227;28;20175;-74
2022/04/07 05:10:01;;;;;;;7.63;6.93;;;;;;;14.28;48.07;93287.09;5045288;28;20546;-74
2022/04/07 05:12:27;;;;;;;10.70;7.23;;;;;;;14.62;47.25;93292.91;5045298;28;20176;-74
2022/04/07 05:14:53;;;;;;;8.33;7.60;;;;;;;14.53;47.83;93300.47;5045527;28;20456;-74
2022/04/07 05:17:19;;;;;;;13.87;8.30;;;;;;;14.38;49.53;93297.69;5045361;28;20168;-74
2022/04/07 05:19:45;;;;;;;11.47;8.83;;;;;;;14.22;50.29;93287.06;5088474;28;20278;-74
2022/04/07 05:22:11;;;;;;;11.30;9.40;;;;;;;14.70;48.52;93289.03;5063994;28;20472;-74
2022/04/07 05:24:37;;;;;;;15.63;8.80;;;;;;;14.82;47.78;93295.69;5065350;28;20943;-75
2022/04/07 05:27:03;;;;;;;12.30;9.47;;;;;;;14.96;48.01;93293.41;5064167;28;20520;-74
2022/04/07 05:29:28;;;;;;;9.80;8.73;;;;;;;15.33;47.06;93291.75;5065503;28;20693;-74
2022/04/07 05:31:53;;;;;;;11.30;8.10;;;;;;;15.32;47.32;93280.41;5065250;28;20171;-74
2022/04/07 05:34:19;;;;;;;10.70;9.50;;;;;;;15.34;47.51;93288.06;5059150;28;20246;-74
2022/04/07 05:36:44;;;;;;;10.13;9.00;;;;;;;15.22;47.07;93304.88;5045415;28;20171;-74
2022/04/07 05:39:10;;;;;;;15.80;9.70;;;;;;;15.19;47.19;93291.41;5045301;28;20183;-74
2022/04/07 05:41:35;;;;;;;9.07;8.23;;;;;;;15.07;46.32;93285.56;5043249;28;20170;-74
2022/04/07 05:44:01;;;;;;;10.00;8.87;;;;;;;15.28;46.36;93292.50;5045258;28;20172;-74
2022/04/07 05:46:26;;;;;;;10.00;8.27;;;;;;;15.34;45.52;93288.84;5043847;28;20202;-74
2022/04/07 05:48:51;;;;;;;10.57;9.53;;;;;;;15.58;45.06;93283.94;5057574;28;20222;-74
2022/04/07 05:51:17;;;;;;;10.60;8.90;;;;;;;15.40;45.64;93271.22;5065156;28;20242;-74
2022/04/07 05:53:42;;;;;;;13.03;10.13;;;;;;;15.59;45.76;93266.25;5063094;28;20262;-74
2022/04/07 05:56:08;;;;;;;9.90;8.90;;;;;;;15.77;44.68;93254.47;5047279;28;20163;-74
2022/04/07 05:58:33;;;;;;;10.63;8.50;;;;;;;16.12;44.00;93258.22;5048512;28;20642;-74
2022/04/07 06:00:59;;;;;;;16.47;9.83;;;;;;;15.37;45.34;93238.25;5048711;28;20562;-74
2022/04/07 06:03:25;;;;;;;9.37;7.97;;;;;;;15.55;44.89;93238.84;5048311;28;20222;-74
2022/04/07 06:05:53;;;;;;;10.53;6.90;;;;;;;14.86;44.75;93224.09;5059744;28;20181;-74
2022/04/07 06:08:19;;;;;;;10.03;7.40;;;;;;;15.28;44.11;93228.47;5080309;28;20424;-74
2022/04/07 06:10:45;;;;;;;12.60;5.30;;;;;;;14.55;44.54;93237.84;5067258;28;20448;-74
2022/04/07 06:13:11;;;;;;;16.33;6.53;;;;;;;14.65;44.78;93234.50;5068489;28;20411;-74
2022/04/07 06:15:39;;;;;;;9.10;7.03;;;;;;;14.89;44.10;93237.53;5068204;28;20181;-74
2022/04/07 06:18:05;;;;;;;9.03;5.73;;;;;;;15.06;44.23;93239.97;5062939;28;20425;-74
2022/04/07 06:20:31;;;;;;;9.77;6.03;;;;;;;14.29;44.77;93239.50;5049187;28;20422;-74
2022/04/07 06:22:57;;;;;;;7.33;5.13;;;;;;;14.62;44.88;93235.00;5048372;28;20406;-74
2022/04/07 06:25:22;;;;;;;9.70;6.60;;;;;;;15.03;43.93;93236.00;5048111;28;20179;-74
2022/04/07 06:27:48;;;;;;;9.83;5.20;;;;;;;15.19;42.91;93230.81;5059558;28;20246;-74
2022/04/07 06:30:18;;;;;;;10.53;5.70;;;;;;;15.13;43.22;93231.84;5046692;28;20214;-74
2022/04/07 06:32:44;;;;;;;9.63;6.50;;;;;;;14.91;43.45;93234.63;5047935;28;20159;-74
2022/04/07 06:35:12;;;;;;;10.53;6.20;;;;;;;15.37;43.04;93232.19;5056213;28;20572;-74
2022/04/07 06:37:54;;;;;;;11.47;6.33;;;;;;;15.10;43.08;93222.63;5048095;28;20944;-74
2022/04/07 06:40:21;;;;;;;14.83;7.33;;;;;;;15.40;41.99;93221.94;5048199;28;20476;-74
2022/04/07 06:42:51;;;;;;;21.10;6.17;;;;;;;15.37;41.61;93222.44;5047816;28;20398;-74
2022/04/07 06:45:17;;;;;;;5.90;4.47;;;;;;;14.92;41.76;93215.94;5047802;28;20424;-75
2022/04/07 06:47:43;;;;;;;7.37;5.90;;;;;;;15.04;41.54;93221.00;5046386;28;20402;-74
2022/04/07 06:50:13;;;;;;;6.27;5.37;;;;;;;14.93;42.13;93220.16;5065627;28;20483;-74
2022/04/07 06:52:40;;;;;;;5.43;4.80;;;;;;;15.15;41.33;93224.47;5067727;28;20412;-74
2022/04/07 06:55:06;;;;;;;5.33;4.83;;;;;;;15.41;41.27;93218.22;5067427;28;20436;-74
2022/04/07 06:57:31;;;;;;;7.00;6.13;;;;;;;15.07;42.46;93223.13;5067300;28;20425;-74
2022/04/07 06:59:57;;;;;;;6.60;5.27;;;;;;;15.46;40.99;93229.84;5067110;28;20437;-74
2022/04/07 07:02:23;;;;;;;6.43;5.57;;;;;;;15.51;40.62;93216.69;5067293;28;20598;-74
2022/04/07 07:04:48;;;;;;;11.63;6.03;;;;;;;15.66;40.45;93213.28;5067370;28;20170;-75
2022/04/07 07:07:14;;;;;;;9.33;6.80;;;;;;;15.49;41.09;93203.75;5049313;28;20475;-74
2022/04/07 07:09:39;;;;;;;22.37;6.73;;;;;;;15.77;40.75;93199.88;5047235;28;20213;-74
2022/04/07 07:12:05;;;;;;;10.90;6.00;;;;;;;16.22;40.27;93200.16;5047404;28;20169;-74
2022/04/07 07:14:30;;;;;;;6.57;5.40;;;;;;;16.35;39.52;93215.47;5047823;28;20646;-74
2022/04/07 07:16:56;;;;;;;9.80;7.80;;;;;;;16.44;39.44;93215.72;5046636;28;20178;-74
2022/04/07 07:19:26;;;;;;;7.40;6.30;;;;;;;16.54;39.83;93209.63;5046763;28;20214;-74
2022/04/07 07:21:53;;;;;;;11.60;6.70;;;;;;;17.03;38.34;93213.50;5045825;28;20178;-75
2022/04/07 07:24:18;;;;;;;8.73;6.80;;;;;;;16.72;38.83;93214.34;5046920;28;20468;-74
2022/04/07 07:26:45;;;;;;;7.70;6.90;;;;;;;16.85;38.82;93207.75;5052301;28;20746;-74
2022/04/07 07:29:10;;;;;;;7.20;6.27;;;;;;;16.71;38.66;93202.22;5065840;28;20175;-75
2022/04/07 07:31:36;;;;;;;9.07;5.27;;;;;;;16.08;39.77;93204.38;5066730;28;20962;-75
2022/04/07 07:34:03;;;;;;;8.27;5.87;;;;;;;15.78;40.49;93195.38;5065815;28;20179;-74
2022/04/07 07:36:29;;;;;;;9.50;5.87;;;;;;;15.76;40.42;93193.03;5049958;28;20191;-74
2022/04/07 07:38:55;;;;;;;6.20;5.50;;;;;;;16.61;39.11;93190.88;5046569;28;20468;-75
2022/04/07 07:41:21;;;;;;;8.43;6.33;;;;;;;16.22;39.93;93179.06;5046691;28;20406;-74
2022/04/07 07:43:46;;;;;;;6.27;5.77;;;;;;;16.56;39.14;93173.97;5046439;28;20425;-74
2022/04/07 07:46:12;;;;;;;11.87;6.47;;;;;;;16.59;39.34;93170.78;5045225;28;20194;-74
2022/04/07 07:48:37;;;;;;;8.80;6.43;;;;;;;16.31;40.72;93166.09;5046311;28;20206;-74
2022/04/07 07:51:02;;;;;;;10.00;6.47;;;;;;;16.58;40.20;93171.06;5046258;28;20215;-74
2022/04/07 07:53:28;;;;;;;9.50;6.93;;;;;;;16.58;41.70;93166.59;5046444;28;20179;-74
2022/04/07 07:55:54;;;;;;;13.23;8.03;;;;;;;16.49;43.06;93165.53;5046023;28;20182;-75
2022/04/07 07:58:20;;;;;;;12.13;6.80;;;;;;;16.77;41.10;93171.28;5046333;28;20168;-74
2022/04/07 08:00:46;;;;;;;11.40;7.13;;;;;;;16.25;42.04;93157.38;5044808;28;20426;-74
2022/04/07 08:03:11;;;;;;;9.90;6.80;;;;;;;16.42;41.65;93151.81;5054880;28;20206;-75
2022/04/07 08:05:37;;;;;;;8.50;7.40;;;;;;;16.26;41.77;93151.06;5062411;28;20197;-74
2022/04/07 08:08:03;;;;;;;9.40;7.33;;;;;;;16.15;42.44;93149.50;5046121;28;20182;-74
2022/04/07 08:10:29;;;;;;;9.27;7.27;;;;;;;16.58;42.61;93137.53;5045986;28;20192;-74
2022/04/07 08:12:54;;;;;;;9.27;6.70;;;;;;;16.38;43.11;93140.22;5044603;28;20430;-74
2022/04/07 08:15:20;;;;;;;7.80;7.00;;;;;;;16.94;41.01;93148.00;5045990;28;20172;-74
2022/04/07 08:17:45;;;;;;;8.87;6.90;;;;;;;16.95;41.83;93128.44;5044712;28;20175;-74
2022/04/07 08:20:11;;;;;;;8.03;7.23;;;;;;;17.05;41.97;93127.59;5044599;28;20258;-74
2022/04/07 08:22:37;;;;;;;8.00;7.10;;;;;;;16.76;41.61;93127.44;5046568;28;20187;-74
2022/04/07 08:25:03;;;;;;;10.53;7.07;;;;;;;16.81;40.84;93119.50;5064704;28;20455;-74
2022/04/07 08:27:29;;;;;;;7.80;6.17;;;;;;;17.63;39.92;93108.47;5064567;28;20234;-74
2022/04/07 08:29:54;;;;;;;13.87;8.33;;;;;;;17.49;40.06;93110.16;5065745;28;20951;-74
2022/04/07 08:32:20;;;;;;;7.73;7.07;;;;;;;17.05;40.77;93113.59;5065549;28;20171;-74
2022/04/07 08:34:46;;;;;;;8.80;6.17;;;;;;;16.88;40.32;93122.63;5065787;28;20182;-75
2022/04/07 08:37:11;;;;;;;6.30;5.40;;;;;;;17.34;39.42;93119.78;5065623;28;20177;-74
2022/04/07 08:39:37;;;;;;;11.80;6.80;;;;;;;17.55;39.39;93103.78;5065331;28;20440;-74
2022/04/07 08:42:04;;;;;;;7.77;6.97;;;;;;;17.09;39.35;93115.44;5064542;28;20166;-74
2022/04/07 08:44:33;;;;;;;7.93;6.57;;;;;;;17.26;39.73;93107.13;5065398;28;20179;-75
2022/04/07 08:47:00;;;;;;;7.27;6.03;;;;;;;17.55;38.19;93106.44;5065089;28;20413;-74
2022/04/07 08:49:28;;;;;;;9.60;7.17;;;;;;;17.87;38.14;93092.72;5065422;28;20488;-74
2022/04/07 08:51:54;;;;;;;8.60;5.87;;;;;;;17.95;37.39;93107.19;5065196;28;20420;-75
2022/04/07 08:54:20;;;;;;;6.97;6.27;;;;;;;17.90;37.00;93104.59;5057689;28;20430;-74
2022/04/07 08:56:47;;;;;;;6.47;5.97;;;;;;;18.43;36.43;93101.97;5045215;28;20164;-74
2022/04/07 08:59:13;;;;;;;11.50;6.50;;;;;;;18.21;35.61;93089.22;5043924;28;20536;-74
2022/04/07 09:01:38;;;;;;;9.07;7.03;;;;;;;18.18;36.13;93089.00;5045129;28;20425;-74
2022/04/07 09:04:04;;;;;;;11.30;7.00;;;;;;;18.58;35.82;93097.59;5044356;28;20509;-74
2022/04/07 09:06:33;;;;;;;9.53;7.40;;;;;;;18.92;35.43;93097.47;5088394;28;20185;-74
2022/04/07 09:09:10;;;;;;;11.30;6.97;;;;;;;18.09;36.81;93097.53;5065456;28;20262;-74
2022/04/07 09:11:35;;;;;;;7.23;6.47;;;;;;;18.13;36.63;93095.13;5064219;28;20448;-74
2022/04/07 09:14:01;;;;;;;9.00;6.00;;;;;;;17.53;37.82;93090.81;5064757;28;20437;-74
2022/04/07 09:16:27;;;;;;;10.03;7.13;;;;;;;17.47;37.80;93101.69;5065309;28;20250;-74
2022/04/07 09:18:53;;;;;;;11.60;5.93;;;;;;;16.98;39.24;93112.03;5064994;28;20246;-74
2022/04/07 09:21:25;;;;;;;8.40;6.07;;;;;;;16.89;39.55;93118.16;5065089;28;20397;-74
2022/04/07 09:23:56;;;;;;;10.80;6.20;;;;;;;16.06;41.16;93117.56;5053480;28;20446;-74
2022/04/07 09:26:21;;;;;;;8.57;7.67;;;;;;;15.95;41.86;93129.19;5045082;28;20390;-74
2022/04/07 09:28:47;;;;;;;6.20;5.70;;;;;;;15.93;42.21;93129.44;5044897;28;20458;-74
2022/04/07 09:31:14;;;;;;;6.50;5.97;;;;;;;16.07;41.69;93118.34;5046673;28;20195;-74
2022/04/07 09:33:39;;;;;;;7.00;6.20;;;;;;;16.41;40.82;93110.66;5048688;28;20186;-74
2022/04/07 09:36:06;;;;;;;8.37;6.60;;;;;;;16.47;41.08;93117.50;5066756;28;20409;-74
2022/04/07 09:38:33;;;;;;;9.13;6.10;;;;;;;16.72;41.17;93107.91;5068856;28;20285;-75
2022/04/07 09:41:11;;;;;;;8.00;6.80;;;;;;;15.91;43.05;93130.78;5068861;28;20405;-75
2022/04/07 09:44:00;;;;;;;12.90;6.70;;;;;;;15.74;44.42;93125.75;5068360;28;20459;-75
2022/04/07 09:46:31;;;;;;;10.63;7.73;;;;;;;15.82;46.30;93122.59;5069134;28;20502;-74
2022/04/07 09:49:04;;;;;;;11.17;7.23;;;;;;;15.90;46.07;93123.94;5067159;28;20431;-74
2022/04/07 09:51:40;;;;;;;8.63;6.97;;;;;;;15.28;47.72;93149.41;5067972;28;20543;-74
2022/04/07 09:54:10;;;;;;;11.50;7.80;;;;;;;14.72;48.71;93163.16;5061903;28;20433;-74
2022/04/07 09:56:37;;;;;;;7.70;6.43;;;;;;;14.47;51.10;93163.81;5068712;28;20993;-74
2022/04/07 09:59:07;;;;;;;10.77;5.73;;;;;;;14.64;51.93;93167.91;5067229;28;20425;-74
2022/04/07 10:01:38;;;;;;;17.77;6.20;;;;;;;14.42;53.83;93172.47;5067169;28;20429;-74
2022/04/07 10:04:05;;;;;;;11.30;3.90;;;;;;;13.59;55.94;93168.44;5067840;28;20799;-74
2022/04/07 10:06:33;;;;;;;14.10;5.47;;;;;;;13.96;56.12;93170.34;5057449;28;20414;-73
2022/04/07 10:09:01;;;;;;;10.10;5.90;;;;;;;13.93;56.64;93170.03;5048278;28;20429;-74
2022/04/07 10:11:29;;;;;;;14.40;6.40;;;;;;;13.75;59.87;93176.47;5046709;28;20509;-74
2022/04/07 10:13:56;;;;;;;6.40;5.30;;;;;;;13.58;59.05;93171.31;5053805;28;20527;-74
2022/04/07 10:16:22;;;;;;;9.43;6.73;;;;;;;13.40;60.52;93173.25;5068538;28;20401;-74
2022/04/07 10:18:58;;;;;;;16.10;8.20;;;;;;;13.57;60.36;93169.75;5068426;28;20516;-74
2022/04/07 10:21:51;;;;;;;16.40;9.20;;;;;;;13.49;61.81;93173.63;5067984;28;20533;-74
2022/04/07 10:24:45;;;;;;;10.83;8.73;;;;;;;13.57;62.44;93153.97;5066707;28;20574;-74
2022/04/07 10:27:12;;;;;;;15.03;10.53;;;;;;;13.49;63.89;93157.84;5067815;28;20452;-75
2022/04/07 10:29:38;;;;;;;15.77;11.57;;;;;;;13.76;63.06;93155.19;5067648;28;20425;-75
2022/04/07 10:32:12;;;;;;;13.73;12.07;;;;;;;13.67;63.95;93154.84;5068182;28;20464;-76
2022/04/07 10:34:42;;;;;;;17.87;13.80;;;;;;;13.70;64.75;93144.84;5068122;28;20435;-75
2022/04/07 10:37:09;;;;;;;13.93;11.50;;;;;;;13.71;65.33;93149.88;5066892;28;20433;-75
2022/04/07 10:39:35;;;;;;;14.67;12.70;;;;;;;13.74;65.43;93149.38;5047649;28;20433;-75
2022/04/07 10:42:01;;;;;;;14.20;10.23;;;;;;;13.36;67.01;93150.38;5057333;28;20429;-75
2022/04/07 10:44:27;;;;;;;14.83;13.20;;;;;;;13.53;65.64;93142.38;5067502;28;20609;-75
2022/04/07 10:47:04;;;;;;;16.63;12.07;;;;;;;13.41;66.37;93135.44;5067559;28;20421;-75
2022/04/07 10:49:31;;;;;;;15.20;12.97;;;;;;;13.59;65.99;93136.13;5066408;28;20436;-75
2022/04/07 10:51:58;;;;;;;13.30;9.20;;;;;;;13.18;65.40;93115.47;5057530;28;20489;-75
2022/04/07 10:54:28;;;;;;;18.07;9.70;;;;;;;13.83;64.88;93116.34;5054564;28;20429;-75
2022/04/07 10:56:56;;;;;;;11.87;10.67;;;;;;;13.96;64.91;93112.47;5067727;28;20477;-75
2022/04/07 10:59:34;;;;;;;12.33;9.80;;;;;;;14.02;63.39;93105.41;5066678;28;20437;-75
2022/04/07 11:02:01;;;;;;;13.43;9.80;;;;;;;13.46;64.77;93105.78;5067456;28;20456;-75
2022/04/07 11:04:28;;;;;;;11.30;8.07;;;;;;;13.35;64.88;93098.84;5068001;28;20489;-75
2022/04/07 11:07:10;;;;;;;13.17;9.83;;;;;;;14.02;63.49;93100.16;5065895;28;20455;-75
2022/04/07 11:09:58;;;;;;;16.33;9.20;;;;;;;14.39;62.17;93100.06;5080984;28;20428;-75
2022/04/07 11:12:24;;;;;;;9.90;8.53;;;;;;;14.12;62.52;93094.94;5074042;28;20519;-75
2022/04/07 11:14:53;;;;;;;10.73;6.83;;;;;;;13.55;64.12;93085.09;5067140;28;20432;-74
2022/04/07 11:17:28;;;;;;;13.67;8.60;;;;;;;13.68;62.83;93089.94;5066931;28;20500;-74
2022/04/07 11:20:13;;;;;;;9.73;7.90;;;;;;;13.63;62.14;93095.16;5067354;28;20424;-74
2022/04/07 11:22:54;;;;;;;13.80;7.50;;;;;;;14.18;61.12;93093.13;5067306;28;20465;-75
2022/04/07 11:25:48;;;;;;;8.50;6.87;;;;;;;14.22;59.27;93095.00;5067066;28;20429;-75
2022/04/07 11:28:15;;;;;;;11.53;6.70;;;;;;;15.08;57.56;93092.19;5062099;28;20478;-76
2022/04/07 11:30:46;;;;;;;10.53;8.00;;;;;;;15.43;57.88;93094.88;5066757;28;20547;-75